sensor_id;sensor_type;location;lat;lon;timestamp;P1;durP1;ratioP1;P2;durP2;ratioP2
45103;SDS011;30865;51.288;4.572;2023-05-28T00:00:49;5.65;;;2.88;;
45103;SDS011;30865;51.288;4.572;2023-05-28T00:03:15;5.75;;;2.83;;
45103;SDS011;30865;51.288;4.572;2023-05-28T00:05:42;7.07;;;3.88;;
45103;SDS011;30865;51.288;4.572;2023-05-28T00:08:09;7.47;;;3.05;;
45103;SDS011;30865;51.288;4.572;2023-05-28T00:10:34;4.72;;;2.60;;
45103;SDS011;30865;51.288;4.572;2023-05-28T00:13:00;8.07;;;3.28;;
45103;SDS011;30865;51.288;4.572;2023-05-28T00:15:26;19.08;;;3.97;;
45103;SDS011;30865;51.288;4.572;2023-05-28T00:17:51;8.05;;;3.03;;
45103;SDS011;30865;51.288;4.572;2023-05-28T00:20:18;8.32;;;3.30;;
45103;SDS011;30865;51.288;4.572;2023-05-28T00:22:44;8.93;;;3.33;;
45103;SDS011;30865;51.288;4.572;2023-05-28T00:25:10;8.75;;;3.35;;
45103;SDS011;30865;51.288;4.572;2023-05-28T00:27:36;7.57;;;2.83;;
45103;SDS011;30865;51.288;4.572;2023-05-28T00:30:02;7.15;;;3.53;;
45103;SDS011;30865;51.288;4.572;2023-05-28T00:32:28;11.05;;;3.45;;
45103;SDS011;30865;51.288;4.572;2023-05-28T00:34:53;6.53;;;3.80;;
45103;SDS011;30865;51.288;4.572;2023-05-28T00:37:19;13.77;;;3.42;;
45103;SDS011;30865;51.288;4.572;2023-05-28T00:39:45;6.05;;;3.30;;
45103;SDS011;30865;51.288;4.572;2023-05-28T00:42:10;6.78;;;2.88;;
45103;SDS011;30865;51.288;4.572;2023-05-28T00:44:37;7.90;;;3.20;;
45103;SDS011;30865;51.288;4.572;2023-05-28T00:47:04;10.80;;;3.30;;
45103;SDS011;30865;51.288;4.572;2023-05-28T00:49:30;5.45;;;2.65;;
45103;SDS011;30865;51.288;4.572;2023-05-28T00:51:57;6.78;;;3.05;;
45103;SDS011;30865;51.288;4.572;2023-05-28T00:54:24;10.05;;;3.33;;
45103;SDS011;30865;51.288;4.572;2023-05-28T00:56:53;6.30;;;2.85;;
45103;SDS011;30865;51.288;4.572;2023-05-28T00:59:19;9.35;;;2.88;;
45103;SDS011;30865;51.288;4.572;2023-05-28T01:01:46;6.75;;;2.78;;
45103;SDS011;30865;51.288;4.572;2023-05-28T01:04:12;9.00;;;3.10;;
45103;SDS011;30865;51.288;4.572;2023-05-28T01:06:38;11.25;;;3.88;;
45103;SDS011;30865;51.288;4.572;2023-05-28T01:09:05;7.90;;;3.60;;
45103;SDS011;30865;51.288;4.572;2023-05-28T01:11:31;9.90;;;2.83;;
45103;SDS011;30865;51.288;4.572;2023-05-28T01:13:57;7.00;;;3.00;;
45103;SDS011;30865;51.288;4.572;2023-05-28T01:16:23;6.72;;;2.80;;
45103;SDS011;30865;51.288;4.572;2023-05-28T01:18:49;4.78;;;3.00;;
45103;SDS011;30865;51.288;4.572;2023-05-28T01:21:20;7.43;;;3.40;;
45103;SDS011;30865;51.288;4.572;2023-05-28T01:23:47;8.75;;;3.72;;
45103;SDS011;30865;51.288;4.572;2023-05-28T01:26:13;6.05;;;3.08;;
45103;SDS011;30865;51.288;4.572;2023-05-28T01:28:46;7.38;;;2.88;;
45103;SDS011;30865;51.288;4.572;2023-05-28T01:31:13;6.30;;;3.63;;
45103;SDS011;30865;51.288;4.572;2023-05-28T01:33:39;8.68;;;3.83;;
45103;SDS011;30865;51.288;4.572;2023-05-28T01:36:07;6.45;;;3.00;;
45103;SDS011;30865;51.288;4.572;2023-05-28T01:38:37;6.80;;;3.00;;
45103;SDS011;30865;51.288;4.572;2023-05-28T01:41:04;5.57;;;3.13;;
45103;SDS011;30865;51.288;4.572;2023-05-28T01:43:31;12.75;;;3.78;;
45103;SDS011;30865;51.288;4.572;2023-05-28T01:45:57;3.97;;;3.05;;
45103;SDS011;30865;51.288;4.572;2023-05-28T01:48:22;5.57;;;2.97;;
45103;SDS011;30865;51.288;4.572;2023-05-28T01:50:48;7.40;;;3.28;;
45103;SDS011;30865;51.288;4.572;2023-05-28T01:53:14;10.05;;;3.25;;
45103;SDS011;30865;51.288;4.572;2023-05-28T01:55:40;6.45;;;3.80;;
45103;SDS011;30865;51.288;4.572;2023-05-28T01:58:05;7.70;;;3.40;;
45103;SDS011;30865;51.288;4.572;2023-05-28T02:00:31;6.50;;;3.15;;
45103;SDS011;30865;51.288;4.572;2023-05-28T02:02:57;8.43;;;3.00;;
45103;SDS011;30865;51.288;4.572;2023-05-28T02:05:23;8.13;;;3.38;;
45103;SDS011;30865;51.288;4.572;2023-05-28T02:07:48;11.40;;;4.10;;
45103;SDS011;30865;51.288;4.572;2023-05-28T02:10:14;11.15;;;3.78;;
45103;SDS011;30865;51.288;4.572;2023-05-28T02:12:40;7.97;;;3.40;;
45103;SDS011;30865;51.288;4.572;2023-05-28T02:15:05;5.97;;;3.28;;
45103;SDS011;30865;51.288;4.572;2023-05-28T02:17:32;10.00;;;3.78;;
45103;SDS011;30865;51.288;4.572;2023-05-28T02:19:57;11.52;;;4.07;;
45103;SDS011;30865;51.288;4.572;2023-05-28T02:22:23;7.03;;;4.80;;
45103;SDS011;30865;51.288;4.572;2023-05-28T02:24:48;8.98;;;3.08;;
45103;SDS011;30865;51.288;4.572;2023-05-28T02:27:14;6.35;;;3.45;;
45103;SDS011;30865;51.288;4.572;2023-05-28T02:29:39;8.18;;;3.90;;
45103;SDS011;30865;51.288;4.572;2023-05-28T02:32:05;6.75;;;3.00;;
45103;SDS011;30865;51.288;4.572;2023-05-28T02:34:31;7.47;;;3.10;;
45103;SDS011;30865;51.288;4.572;2023-05-28T02:36:56;8.13;;;3.80;;
45103;SDS011;30865;51.288;4.572;2023-05-28T02:39:22;6.55;;;2.97;;
45103;SDS011;30865;51.288;4.572;2023-05-28T02:41:48;6.03;;;3.50;;
45103;SDS011;30865;51.288;4.572;2023-05-28T02:44:14;7.78;;;2.80;;
45103;SDS011;30865;51.288;4.572;2023-05-28T02:46:40;7.90;;;4.18;;
45103;SDS011;30865;51.288;4.572;2023-05-28T02:49:05;12.02;;;4.93;;
45103;SDS011;30865;51.288;4.572;2023-05-28T02:51:31;11.93;;;4.72;;
45103;SDS011;30865;51.288;4.572;2023-05-28T02:53:57;7.13;;;4.75;;
45103;SDS011;30865;51.288;4.572;2023-05-28T02:56:22;12.15;;;4.47;;
45103;SDS011;30865;51.288;4.572;2023-05-28T02:58:48;8.90;;;4.03;;
45103;SDS011;30865;51.288;4.572;2023-05-28T03:01:13;11.68;;;4.32;;
45103;SDS011;30865;51.288;4.572;2023-05-28T03:03:39;12.18;;;3.40;;
45103;SDS011;30865;51.288;4.572;2023-05-28T03:06:05;8.98;;;3.75;;
45103;SDS011;30865;51.288;4.572;2023-05-28T03:08:32;11.85;;;3.65;;
45103;SDS011;30865;51.288;4.572;2023-05-28T03:10:57;6.93;;;3.53;;
45103;SDS011;30865;51.288;4.572;2023-05-28T03:13:23;6.68;;;3.05;;
45103;SDS011;30865;51.288;4.572;2023-05-28T03:15:48;9.23;;;4.30;;
45103;SDS011;30865;51.288;4.572;2023-05-28T03:18:14;10.88;;;4.05;;
45103;SDS011;30865;51.288;4.572;2023-05-28T03:20:39;7.65;;;3.38;;
45103;SDS011;30865;51.288;4.572;2023-05-28T03:23:04;5.10;;;3.13;;
45103;SDS011;30865;51.288;4.572;2023-05-28T03:25:30;9.75;;;3.75;;
45103;SDS011;30865;51.288;4.572;2023-05-28T03:27:55;11.40;;;3.50;;
45103;SDS011;30865;51.288;4.572;2023-05-28T03:30:21;8.35;;;3.63;;
45103;SDS011;30865;51.288;4.572;2023-05-28T03:32:48;9.57;;;4.80;;
45103;SDS011;30865;51.288;4.572;2023-05-28T03:35:14;10.90;;;4.43;;
45103;SDS011;30865;51.288;4.572;2023-05-28T03:37:40;7.45;;;3.85;;
45103;SDS011;30865;51.288;4.572;2023-05-28T03:40:05;7.18;;;4.00;;
45103;SDS011;30865;51.288;4.572;2023-05-28T03:42:32;10.48;;;3.80;;
45103;SDS011;30865;51.288;4.572;2023-05-28T03:44:57;8.20;;;3.95;;
45103;SDS011;30865;51.288;4.572;2023-05-28T03:47:23;11.27;;;3.88;;
45103;SDS011;30865;51.288;4.572;2023-05-28T03:49:49;7.57;;;3.97;;
45103;SDS011;30865;51.288;4.572;2023-05-28T03:52:15;9.82;;;3.78;;
45103;SDS011;30865;51.288;4.572;2023-05-28T03:54:40;9.48;;;4.30;;
45103;SDS011;30865;51.288;4.572;2023-05-28T03:57:06;8.13;;;4.03;;
45103;SDS011;30865;51.288;4.572;2023-05-28T03:59:31;7.05;;;3.67;;
45103;SDS011;30865;51.288;4.572;2023-05-28T04:01:57;11.20;;;4.35;;
45103;SDS011;30865;51.288;4.572;2023-05-28T04:04:23;8.60;;;4.00;;
45103;SDS011;30865;51.288;4.572;2023-05-28T04:06:48;6.90;;;3.65;;
45103;SDS011;30865;51.288;4.572;2023-05-28T04:09:14;5.55;;;3.47;;
45103;SDS011;30865;51.288;4.572;2023-05-28T04:11:40;5.78;;;3.22;;
45103;SDS011;30865;51.288;4.572;2023-05-28T04:14:05;12.27;;;4.18;;
45103;SDS011;30865;51.288;4.572;2023-05-28T04:16:31;7.30;;;3.58;;
45103;SDS011;30865;51.288;4.572;2023-05-28T04:18:57;7.90;;;3.13;;
45103;SDS011;30865;51.288;4.572;2023-05-28T04:21:23;9.05;;;3.85;;
45103;SDS011;30865;51.288;4.572;2023-05-28T04:23:48;6.70;;;3.85;;
45103;SDS011;30865;51.288;4.572;2023-05-28T04:26:14;14.23;;;3.60;;
45103;SDS011;30865;51.288;4.572;2023-05-28T04:28:41;7.75;;;3.53;;
45103;SDS011;30865;51.288;4.572;2023-05-28T04:31:06;5.93;;;3.50;;
45103;SDS011;30865;51.288;4.572;2023-05-28T04:33:32;6.53;;;3.83;;
45103;SDS011;30865;51.288;4.572;2023-05-28T04:35:58;16.67;;;4.32;;
45103;SDS011;30865;51.288;4.572;2023-05-28T04:38:25;9.18;;;4.20;;
45103;SDS011;30865;51.288;4.572;2023-05-28T04:40:56;7.65;;;3.83;;
45103;SDS011;30865;51.288;4.572;2023-05-28T04:43:22;9.57;;;4.00;;
45103;SDS011;30865;51.288;4.572;2023-05-28T04:45:48;8.23;;;4.45;;
45103;SDS011;30865;51.288;4.572;2023-05-28T04:48:13;9.27;;;3.30;;
45103;SDS011;30865;51.288;4.572;2023-05-28T04:50:39;7.30;;;4.00;;
45103;SDS011;30865;51.288;4.572;2023-05-28T04:53:05;8.15;;;3.92;;
45103;SDS011;30865;51.288;4.572;2023-05-28T04:55:30;8.32;;;3.55;;
45103;SDS011;30865;51.288;4.572;2023-05-28T04:57:56;8.23;;;4.45;;
45103;SDS011;30865;51.288;4.572;2023-05-28T05:00:21;9.35;;;3.58;;
45103;SDS011;30865;51.288;4.572;2023-05-28T05:02:49;12.43;;;4.20;;
45103;SDS011;30865;51.288;4.572;2023-05-28T05:05:15;11.77;;;4.18;;
45103;SDS011;30865;51.288;4.572;2023-05-28T05:07:41;8.55;;;3.97;;
45103;SDS011;30865;51.288;4.572;2023-05-28T05:10:07;7.32;;;3.53;;
45103;SDS011;30865;51.288;4.572;2023-05-28T05:12:34;11.27;;;4.40;;
45103;SDS011;30865;51.288;4.572;2023-05-28T05:15:00;9.27;;;3.80;;
45103;SDS011;30865;51.288;4.572;2023-05-28T05:17:26;10.27;;;4.20;;
45103;SDS011;30865;51.288;4.572;2023-05-28T05:19:52;7.55;;;4.18;;
45103;SDS011;30865;51.288;4.572;2023-05-28T05:22:18;9.13;;;4.63;;
45103;SDS011;30865;51.288;4.572;2023-05-28T05:24:44;8.73;;;4.45;;
45103;SDS011;30865;51.288;4.572;2023-05-28T05:27:11;8.73;;;4.38;;
45103;SDS011;30865;51.288;4.572;2023-05-28T05:29:36;8.77;;;4.95;;
45103;SDS011;30865;51.288;4.572;2023-05-28T05:32:02;9.05;;;4.10;;
45103;SDS011;30865;51.288;4.572;2023-05-28T05:34:28;10.63;;;5.63;;
45103;SDS011;30865;51.288;4.572;2023-05-28T05:36:53;10.73;;;6.13;;
45103;SDS011;30865;51.288;4.572;2023-05-28T05:39:19;13.05;;;5.05;;
45103;SDS011;30865;51.288;4.572;2023-05-28T05:41:44;8.63;;;5.22;;
45103;SDS011;30865;51.288;4.572;2023-05-28T05:44:10;10.23;;;5.15;;
45103;SDS011;30865;51.288;4.572;2023-05-28T05:46:35;8.88;;;4.55;;
45103;SDS011;30865;51.288;4.572;2023-05-28T05:49:01;11.80;;;4.35;;
45103;SDS011;30865;51.288;4.572;2023-05-28T05:51:26;8.57;;;4.47;;
45103;SDS011;30865;51.288;4.572;2023-05-28T05:53:52;8.65;;;4.38;;
45103;SDS011;30865;51.288;4.572;2023-05-28T05:56:18;7.45;;;4.43;;
45103;SDS011;30865;51.288;4.572;2023-05-28T05:58:43;10.25;;;5.20;;
45103;SDS011;30865;51.288;4.572;2023-05-28T06:01:09;8.82;;;4.60;;
45103;SDS011;30865;51.288;4.572;2023-05-28T06:03:35;11.55;;;4.70;;
45103;SDS011;30865;51.288;4.572;2023-05-28T06:06:00;9.30;;;4.72;;
45103;SDS011;30865;51.288;4.572;2023-05-28T06:08:26;9.30;;;5.25;;
45103;SDS011;30865;51.288;4.572;2023-05-28T06:10:52;11.07;;;4.60;;
45103;SDS011;30865;51.288;4.572;2023-05-28T06:13:17;7.18;;;4.20;;
45103;SDS011;30865;51.288;4.572;2023-05-28T06:15:43;9.40;;;4.15;;
45103;SDS011;30865;51.288;4.572;2023-05-28T06:18:09;6.93;;;4.25;;
45103;SDS011;30865;51.288;4.572;2023-05-28T06:20:36;7.82;;;4.30;;
45103;SDS011;30865;51.288;4.572;2023-05-28T06:23:04;10.27;;;4.65;;
45103;SDS011;30865;51.288;4.572;2023-05-28T06:25:32;10.85;;;4.05;;
45103;SDS011;30865;51.288;4.572;2023-05-28T06:28:00;8.90;;;4.20;;
45103;SDS011;30865;51.288;4.572;2023-05-28T06:30:26;11.65;;;3.72;;
45103;SDS011;30865;51.288;4.572;2023-05-28T06:32:51;10.00;;;3.83;;
45103;SDS011;30865;51.288;4.572;2023-05-28T06:35:17;8.48;;;4.25;;
45103;SDS011;30865;51.288;4.572;2023-05-28T06:37:43;9.20;;;3.80;;
45103;SDS011;30865;51.288;4.572;2023-05-28T06:40:09;6.95;;;3.50;;
45103;SDS011;30865;51.288;4.572;2023-05-28T06:42:35;9.35;;;4.55;;
45103;SDS011;30865;51.288;4.572;2023-05-28T06:45:01;8.52;;;4.63;;
45103;SDS011;30865;51.288;4.572;2023-05-28T06:47:27;5.72;;;2.95;;
45103;SDS011;30865;51.288;4.572;2023-05-28T06:49:53;6.03;;;3.33;;
45103;SDS011;30865;51.288;4.572;2023-05-28T06:52:19;7.13;;;2.85;;
45103;SDS011;30865;51.288;4.572;2023-05-28T06:54:45;6.80;;;2.88;;
45103;SDS011;30865;51.288;4.572;2023-05-28T06:57:11;6.72;;;3.03;;
45103;SDS011;30865;51.288;4.572;2023-05-28T06:59:36;5.93;;;2.95;;
45103;SDS011;30865;51.288;4.572;2023-05-28T07:02:02;6.13;;;3.50;;
45103;SDS011;30865;51.288;4.572;2023-05-28T07:04:27;4.97;;;4.22;;
45103;SDS011;30865;51.288;4.572;2023-05-28T07:06:53;6.75;;;2.97;;
45103;SDS011;30865;51.288;4.572;2023-05-28T07:09:19;5.25;;;2.78;;
45103;SDS011;30865;51.288;4.572;2023-05-28T07:11:44;8.23;;;3.42;;
45103;SDS011;30865;51.288;4.572;2023-05-28T07:14:10;7.60;;;3.72;;
45103;SDS011;30865;51.288;4.572;2023-05-28T07:16:35;9.32;;;3.65;;
45103;SDS011;30865;51.288;4.572;2023-05-28T07:19:01;8.63;;;3.22;;
45103;SDS011;30865;51.288;4.572;2023-05-28T07:21:27;5.38;;;2.90;;
45103;SDS011;30865;51.288;4.572;2023-05-28T07:23:52;5.80;;;2.85;;
45103;SDS011;30865;51.288;4.572;2023-05-28T07:26:17;7.88;;;2.92;;
45103;SDS011;30865;51.288;4.572;2023-05-28T07:28:43;6.20;;;3.50;;
45103;SDS011;30865;51.288;4.572;2023-05-28T07:31:08;7.60;;;3.53;;
45103;SDS011;30865;51.288;4.572;2023-05-28T07:33:35;5.80;;;3.53;;
45103;SDS011;30865;51.288;4.572;2023-05-28T07:36:00;5.45;;;3.00;;
45103;SDS011;30865;51.288;4.572;2023-05-28T07:38:26;6.05;;;3.08;;
45103;SDS011;30865;51.288;4.572;2023-05-28T07:40:52;5.88;;;2.75;;
45103;SDS011;30865;51.288;4.572;2023-05-28T07:43:17;7.47;;;3.70;;
45103;SDS011;30865;51.288;4.572;2023-05-28T07:45:43;5.70;;;3.00;;
45103;SDS011;30865;51.288;4.572;2023-05-28T07:48:08;9.30;;;3.10;;
45103;SDS011;30865;51.288;4.572;2023-05-28T07:50:34;6.35;;;2.85;;
45103;SDS011;30865;51.288;4.572;2023-05-28T07:52:59;7.35;;;2.80;;
45103;SDS011;30865;51.288;4.572;2023-05-28T07:55:26;9.93;;;3.67;;
45103;SDS011;30865;51.288;4.572;2023-05-28T07:57:52;7.20;;;2.85;;
45103;SDS011;30865;51.288;4.572;2023-05-28T08:00:18;6.72;;;3.58;;
45103;SDS011;30865;51.288;4.572;2023-05-28T08:02:44;6.05;;;3.03;;
45103;SDS011;30865;51.288;4.572;2023-05-28T08:05:10;7.35;;;2.70;;
45103;SDS011;30865;51.288;4.572;2023-05-28T08:07:36;6.65;;;2.53;;
45103;SDS011;30865;51.288;4.572;2023-05-28T08:10:02;5.65;;;2.80;;
45103;SDS011;30865;51.288;4.572;2023-05-28T08:12:28;5.15;;;2.78;;
45103;SDS011;30865;51.288;4.572;2023-05-28T08:14:53;5.13;;;3.25;;
45103;SDS011;30865;51.288;4.572;2023-05-28T08:17:22;7.82;;;2.90;;
45103;SDS011;30865;51.288;4.572;2023-05-28T08:19:48;7.60;;;3.20;;
45103;SDS011;30865;51.288;4.572;2023-05-28T08:22:14;6.78;;;2.65;;
45103;SDS011;30865;51.288;4.572;2023-05-28T08:24:39;5.43;;;2.67;;
45103;SDS011;30865;51.288;4.572;2023-05-28T08:27:05;5.60;;;2.65;;
45103;SDS011;30865;51.288;4.572;2023-05-28T08:29:31;5.95;;;3.28;;
45103;SDS011;30865;51.288;4.572;2023-05-28T08:31:57;8.23;;;2.83;;
45103;SDS011;30865;51.288;4.572;2023-05-28T08:34:23;7.55;;;3.20;;
45103;SDS011;30865;51.288;4.572;2023-05-28T08:36:49;6.00;;;3.00;;
45103;SDS011;30865;51.288;4.572;2023-05-28T08:39:15;4.93;;;2.90;;
45103;SDS011;30865;51.288;4.572;2023-05-28T08:41:42;5.97;;;2.70;;
45103;SDS011;30865;51.288;4.572;2023-05-28T08:44:08;9.02;;;3.40;;
45103;SDS011;30865;51.288;4.572;2023-05-28T08:46:34;5.47;;;2.92;;
45103;SDS011;30865;51.288;4.572;2023-05-28T08:49:01;4.63;;;3.05;;
45103;SDS011;30865;51.288;4.572;2023-05-28T08:51:27;5.30;;;3.05;;
45103;SDS011;30865;51.288;4.572;2023-05-28T08:53:58;8.82;;;3.17;;
45103;SDS011;30865;51.288;4.572;2023-05-28T08:56:24;7.10;;;3.10;;
45103;SDS011;30865;51.288;4.572;2023-05-28T08:58:50;4.95;;;2.97;;
45103;SDS011;30865;51.288;4.572;2023-05-28T09:01:16;4.57;;;2.97;;
45103;SDS011;30865;51.288;4.572;2023-05-28T09:03:42;13.20;;;2.72;;
45103;SDS011;30865;51.288;4.572;2023-05-28T09:06:10;5.35;;;2.75;;
45103;SDS011;30865;51.288;4.572;2023-05-28T09:08:37;7.75;;;3.08;;
45103;SDS011;30865;51.288;4.572;2023-05-28T09:11:15;8.27;;;3.90;;
45103;SDS011;30865;51.288;4.572;2023-05-28T09:13:43;7.20;;;2.70;;
45103;SDS011;30865;51.288;4.572;2023-05-28T09:16:11;6.35;;;3.20;;
45103;SDS011;30865;51.288;4.572;2023-05-28T09:18:37;8.18;;;2.60;;
45103;SDS011;30865;51.288;4.572;2023-05-28T09:21:06;5.45;;;2.58;;
45103;SDS011;30865;51.288;4.572;2023-05-28T09:23:36;6.00;;;2.95;;
45103;SDS011;30865;51.288;4.572;2023-05-28T09:26:03;6.75;;;2.70;;
45103;SDS011;30865;51.288;4.572;2023-05-28T09:28:34;6.60;;;2.67;;
45103;SDS011;30865;51.288;4.572;2023-05-28T09:31:03;4.63;;;2.95;;
45103;SDS011;30865;51.288;4.572;2023-05-28T09:33:29;9.00;;;3.75;;
45103;SDS011;30865;51.288;4.572;2023-05-28T09:35:58;5.55;;;3.08;;
45103;SDS011;30865;51.288;4.572;2023-05-28T09:38:28;5.60;;;2.65;;
45103;SDS011;30865;51.288;4.572;2023-05-28T09:43:45;10.60;;;2.67;;
45103;SDS011;30865;51.288;4.572;2023-05-28T09:46:11;6.35;;;2.80;;
45103;SDS011;30865;51.288;4.572;2023-05-28T09:48:37;5.30;;;2.60;;
45103;SDS011;30865;51.288;4.572;2023-05-28T09:51:03;6.00;;;3.25;;
45103;SDS011;30865;51.288;4.572;2023-05-28T09:53:30;8.55;;;3.13;;
45103;SDS011;30865;51.288;4.572;2023-05-28T09:55:59;4.47;;;2.58;;
45103;SDS011;30865;51.288;4.572;2023-05-28T09:58:29;8.07;;;2.50;;
45103;SDS011;30865;51.288;4.572;2023-05-28T10:01:00;5.88;;;2.72;;
45103;SDS011;30865;51.288;4.572;2023-05-28T10:06:18;8.93;;;3.33;;
45103;SDS011;30865;51.288;4.572;2023-05-28T10:08:50;4.90;;;2.63;;
45103;SDS011;30865;51.288;4.572;2023-05-28T10:11:20;6.40;;;2.78;;
45103;SDS011;30865;51.288;4.572;2023-05-28T10:13:47;5.68;;;3.40;;
45103;SDS011;30865;51.288;4.572;2023-05-28T10:16:13;8.38;;;2.60;;
45103;SDS011;30865;51.288;4.572;2023-05-28T10:18:39;7.55;;;3.05;;
45103;SDS011;30865;51.288;4.572;2023-05-28T10:21:06;3.90;;;2.53;;
45103;SDS011;30865;51.288;4.572;2023-05-28T10:23:34;7.28;;;2.72;;
45103;SDS011;30865;51.288;4.572;2023-05-28T10:26:00;4.55;;;2.50;;
45103;SDS011;30865;51.288;4.572;2023-05-28T10:28:28;7.72;;;2.78;;
45103;SDS011;30865;51.288;4.572;2023-05-28T10:31:02;4.43;;;2.30;;
45103;SDS011;30865;51.288;4.572;2023-05-28T10:33:29;6.80;;;2.70;;
45103;SDS011;30865;51.288;4.572;2023-05-28T10:35:56;5.72;;;3.45;;
45103;SDS011;30865;51.288;4.572;2023-05-28T10:38:24;7.53;;;2.83;;
45103;SDS011;30865;51.288;4.572;2023-05-28T10:40:50;9.20;;;2.83;;
45103;SDS011;30865;51.288;4.572;2023-05-28T10:46:09;6.35;;;2.72;;
45103;SDS011;30865;51.288;4.572;2023-05-28T10:48:39;4.30;;;2.75;;
45103;SDS011;30865;51.288;4.572;2023-05-28T10:51:08;4.60;;;2.00;;
45103;SDS011;30865;51.288;4.572;2023-05-28T10:53:34;5.63;;;3.03;;
45103;SDS011;30865;51.288;4.572;2023-05-28T10:56:00;5.35;;;2.75;;
45103;SDS011;30865;51.288;4.572;2023-05-28T10:58:33;4.22;;;2.63;;
45103;SDS011;30865;51.288;4.572;2023-05-28T11:03:42;5.32;;;2.72;;
45103;SDS011;30865;51.288;4.572;2023-05-28T11:06:16;4.80;;;2.47;;
45103;SDS011;30865;51.288;4.572;2023-05-28T11:08:42;6.88;;;2.20;;
45103;SDS011;30865;51.288;4.572;2023-05-28T11:11:10;6.95;;;2.67;;
45103;SDS011;30865;51.288;4.572;2023-05-28T11:13:37;6.07;;;3.25;;
45103;SDS011;30865;51.288;4.572;2023-05-28T11:16:07;6.07;;;3.17;;
45103;SDS011;30865;51.288;4.572;2023-05-28T11:18:33;5.47;;;2.70;;
45103;SDS011;30865;51.288;4.572;2023-05-28T11:21:02;4.05;;;2.50;;
45103;SDS011;30865;51.288;4.572;2023-05-28T11:23:32;5.80;;;3.40;;
45103;SDS011;30865;51.288;4.572;2023-05-28T11:25:58;6.82;;;2.95;;
45103;SDS011;30865;51.288;4.572;2023-05-28T11:28:24;4.95;;;2.63;;
45103;SDS011;30865;51.288;4.572;2023-05-28T11:30:50;4.55;;;2.28;;
45103;SDS011;30865;51.288;4.572;2023-05-28T11:33:17;5.55;;;2.65;;
45103;SDS011;30865;51.288;4.572;2023-05-28T11:35:42;6.13;;;2.65;;
45103;SDS011;30865;51.288;4.572;2023-05-28T11:38:08;11.10;;;2.75;;
45103;SDS011;30865;51.288;4.572;2023-05-28T11:40:33;4.65;;;2.13;;
45103;SDS011;30865;51.288;4.572;2023-05-28T11:42:59;4.32;;;2.47;;
45103;SDS011;30865;51.288;4.572;2023-05-28T11:45:25;5.82;;;2.70;;
45103;SDS011;30865;51.288;4.572;2023-05-28T11:47:51;4.38;;;2.60;;
45103;SDS011;30865;51.288;4.572;2023-05-28T11:50:19;7.43;;;3.08;;
45103;SDS011;30865;51.288;4.572;2023-05-28T11:52:45;7.90;;;2.70;;
45103;SDS011;30865;51.288;4.572;2023-05-28T11:55:11;4.50;;;2.67;;
45103;SDS011;30865;51.288;4.572;2023-05-28T11:57:39;5.60;;;2.22;;
45103;SDS011;30865;51.288;4.572;2023-05-28T12:00:28;9.10;;;2.40;;
45103;SDS011;30865;51.288;4.572;2023-05-28T12:02:57;4.50;;;1.90;;
45103;SDS011;30865;51.288;4.572;2023-05-28T12:05:24;6.50;;;2.67;;
45103;SDS011;30865;51.288;4.572;2023-05-28T12:07:53;8.63;;;2.50;;
45103;SDS011;30865;51.288;4.572;2023-05-28T12:10:20;6.13;;;2.80;;
45103;SDS011;30865;51.288;4.572;2023-05-28T12:12:48;6.45;;;2.58;;
45103;SDS011;30865;51.288;4.572;2023-05-28T12:15:15;7.03;;;2.67;;
45103;SDS011;30865;51.288;4.572;2023-05-28T12:17:42;5.53;;;2.20;;
45103;SDS011;30865;51.288;4.572;2023-05-28T12:22:40;4.88;;;2.53;;
45103;SDS011;30865;51.288;4.572;2023-05-28T12:25:06;3.95;;;2.65;;
45103;SDS011;30865;51.288;4.572;2023-05-28T12:27:32;5.38;;;2.63;;
45103;SDS011;30865;51.288;4.572;2023-05-28T12:29:58;6.43;;;3.05;;
45103;SDS011;30865;51.288;4.572;2023-05-28T12:32:24;6.75;;;2.45;;
45103;SDS011;30865;51.288;4.572;2023-05-28T12:34:49;4.47;;;2.92;;
45103;SDS011;30865;51.288;4.572;2023-05-28T12:37:16;10.57;;;3.33;;
45103;SDS011;30865;51.288;4.572;2023-05-28T12:39:45;7.57;;;2.90;;
45103;SDS011;30865;51.288;4.572;2023-05-28T12:42:10;5.20;;;2.80;;
45103;SDS011;30865;51.288;4.572;2023-05-28T12:44:36;5.03;;;2.17;;
45103;SDS011;30865;51.288;4.572;2023-05-28T12:47:01;4.38;;;2.35;;
45103;SDS011;30865;51.288;4.572;2023-05-28T12:49:27;6.40;;;2.58;;
45103;SDS011;30865;51.288;4.572;2023-05-28T12:51:53;5.70;;;2.30;;
45103;SDS011;30865;51.288;4.572;2023-05-28T12:54:18;5.88;;;3.13;;
45103;SDS011;30865;51.288;4.572;2023-05-28T12:56:44;5.90;;;2.30;;
45103;SDS011;30865;51.288;4.572;2023-05-28T12:59:19;6.07;;;3.03;;
45103;SDS011;30865;51.288;4.572;2023-05-28T13:01:46;10.60;;;2.58;;
45103;SDS011;30865;51.288;4.572;2023-05-28T13:04:11;6.97;;;2.75;;
45103;SDS011;30865;51.288;4.572;2023-05-28T13:06:37;3.72;;;2.30;;
45103;SDS011;30865;51.288;4.572;2023-05-28T13:09:02;3.80;;;2.50;;
45103;SDS011;30865;51.288;4.572;2023-05-28T13:11:29;9.85;;;3.15;;
45103;SDS011;30865;51.288;4.572;2023-05-28T13:13:55;4.78;;;2.50;;
45103;SDS011;30865;51.288;4.572;2023-05-28T13:16:20;5.30;;;1.98;;
45103;SDS011;30865;51.288;4.572;2023-05-28T13:18:46;6.63;;;2.50;;
45103;SDS011;30865;51.288;4.572;2023-05-28T13:21:12;9.55;;;3.03;;
45103;SDS011;30865;51.288;4.572;2023-05-28T13:23:37;4.00;;;2.60;;
45103;SDS011;30865;51.288;4.572;2023-05-28T13:26:03;6.75;;;2.60;;
45103;SDS011;30865;51.288;4.572;2023-05-28T13:28:29;7.47;;;2.78;;
45103;SDS011;30865;51.288;4.572;2023-05-28T13:30:54;3.65;;;2.58;;
45103;SDS011;30865;51.288;4.572;2023-05-28T13:33:20;6.60;;;2.83;;
45103;SDS011;30865;51.288;4.572;2023-05-28T13:35:45;5.22;;;2.30;;
45103;SDS011;30865;51.288;4.572;2023-05-28T13:38:11;7.72;;;2.55;;
45103;SDS011;30865;51.288;4.572;2023-05-28T13:40:37;7.28;;;3.58;;
45103;SDS011;30865;51.288;4.572;2023-05-28T13:43:03;6.78;;;3.28;;
45103;SDS011;30865;51.288;4.572;2023-05-28T13:45:28;6.10;;;2.75;;
45103;SDS011;30865;51.288;4.572;2023-05-28T13:47:56;5.90;;;3.13;;
45103;SDS011;30865;51.288;4.572;2023-05-28T13:50:21;6.88;;;2.40;;
45103;SDS011;30865;51.288;4.572;2023-05-28T13:52:47;6.03;;;3.08;;
45103;SDS011;30865;51.288;4.572;2023-05-28T13:55:13;6.13;;;3.03;;
45103;SDS011;30865;51.288;4.572;2023-05-28T13:57:38;7.22;;;2.83;;
45103;SDS011;30865;51.288;4.572;2023-05-28T14:00:04;6.18;;;2.45;;
45103;SDS011;30865;51.288;4.572;2023-05-28T14:02:32;5.28;;;2.67;;
45103;SDS011;30865;51.288;4.572;2023-05-28T14:04:58;6.20;;;2.85;;
45103;SDS011;30865;51.288;4.572;2023-05-28T14:07:23;6.90;;;2.70;;
45103;SDS011;30865;51.288;4.572;2023-05-28T14:09:49;5.50;;;2.83;;
45103;SDS011;30865;51.288;4.572;2023-05-28T14:12:14;5.13;;;2.83;;
45103;SDS011;30865;51.288;4.572;2023-05-28T14:14:39;8.80;;;3.00;;
45103;SDS011;30865;51.288;4.572;2023-05-28T14:17:05;5.68;;;2.50;;
45103;SDS011;30865;51.288;4.572;2023-05-28T14:19:31;5.68;;;2.58;;
45103;SDS011;30865;51.288;4.572;2023-05-28T14:21:56;10.05;;;2.83;;
45103;SDS011;30865;51.288;4.572;2023-05-28T14:24:22;7.20;;;2.72;;
45103;SDS011;30865;51.288;4.572;2023-05-28T14:26:48;5.53;;;2.80;;
45103;SDS011;30865;51.288;4.572;2023-05-28T14:29:13;7.25;;;3.10;;
45103;SDS011;30865;51.288;4.572;2023-05-28T14:31:39;4.53;;;2.60;;
45103;SDS011;30865;51.288;4.572;2023-05-28T14:34:05;7.03;;;3.08;;
45103;SDS011;30865;51.288;4.572;2023-05-28T14:36:30;6.05;;;3.13;;
45103;SDS011;30865;51.288;4.572;2023-05-28T14:38:56;5.63;;;3.00;;
45103;SDS011;30865;51.288;4.572;2023-05-28T14:41:22;8.00;;;3.10;;
45103;SDS011;30865;51.288;4.572;2023-05-28T14:43:47;8.32;;;2.92;;
45103;SDS011;30865;51.288;4.572;2023-05-28T14:46:13;6.32;;;3.28;;
45103;SDS011;30865;51.288;4.572;2023-05-28T14:48:38;5.93;;;2.60;;
45103;SDS011;30865;51.288;4.572;2023-05-28T14:51:04;6.05;;;3.15;;
45103;SDS011;30865;51.288;4.572;2023-05-28T14:53:31;6.40;;;3.00;;